Time;durP1;ratioP1;P1;durP2;ratioP2;P2;SDS_P1;SDS_P2;PMS_P1;PMS_P2;Temp;Humidity;BMP_temperature;BMP_pressure;BME280_temperature;BME280_humidity;BME280_pressure;Samples;Min_cycle;Max_cycle;Signal;HPM_P1;HPM_P2
2024/04/25 00:00:47;;;;;;;18.10;11.80;;;;;22.00;99622.00;;;;2212404;26;20612;-54
2024/04/25 00:01:48;;;;;;;17.07;11.20;;;;;22.00;99605.00;;;;2206445;26;21002;-55
2024/04/25 00:02:51;;;;;;;17.52;11.73;;;;;22.00;99613.00;;;;2219103;26;20251;-56
2024/04/25 00:03:51;;;;;;;16.35;11.00;;;;;22.00;99607.00;;;;2216425;26;20255;-56
2024/04/25 00:04:52;;;;;;;17.67;11.53;;;;;22.00;99598.00;;;;2216152;26;20723;-55
2024/04/25 00:05:52;;;;;;;17.83;12.00;;;;;22.00;99624.00;;;;2212832;26;21052;-55
2024/04/25 00:06:52;;;;;;;18.37;11.20;;;;;22.00;99598.00;;;;2197879;26;20779;-55
2024/04/25 00:07:53;;;;;;;18.50;10.43;;;;;22.00;99638.00;;;;2217482;26;20356;-54
2024/04/25 00:08:53;;;;;;;17.50;11.30;;;;;22.00;99598.00;;;;2211298;26;20255;-55
2024/04/25 00:09:54;;;;;;;15.50;10.60;;;;;22.00;99593.00;;;;2217712;26;20301;-56
2024/04/25 00:10:54;;;;;;;17.37;11.20;;;;;22.00;99596.00;;;;2218351;26;20782;-56
2024/04/25 00:11:55;;;;;;;17.60;11.33;;;;;22.00;99599.00;;;;2208161;26;20924;-56
2024/04/25 00:12:56;;;;;;;18.33;11.10;;;;;22.00;99605.00;;;;2219768;26;20247;-56
2024/04/25 00:13:56;;;;;;;19.10;10.27;;;;;22.00;99594.00;;;;2216917;26;20255;-56
2024/04/25 00:14:56;;;;;;;18.17;11.47;;;;;22.00;99605.00;;;;2215922;26;20599;-56
2024/04/25 00:15:57;;;;;;;16.30;10.10;;;;;22.00;99603.00;;;;2217194;26;21149;-56
2024/04/25 00:16:57;;;;;;;16.90;9.60;;;;;22.00;99611.00;;;;2206584;26;21096;-56
2024/04/25 00:17:58;;;;;;;16.40;10.43;;;;;22.00;99607.00;;;;2216149;26;20255;-55
2024/04/25 00:18:58;;;;;;;14.77;9.57;;;;;22.00;99607.00;;;;2217886;26;20367;-56
2024/04/25 00:19:58;;;;;;;17.30;10.30;;;;;22.00;99606.00;;;;2216999;26;20365;-56
2024/04/25 00:20:59;;;;;;;17.03;10.40;;;;;21.90;99604.00;;;;2216375;26;20310;-56
2024/04/25 00:22:01;;;;;;;19.10;10.47;;;;;21.90;99603.00;;;;2207367;26;20319;-56
2024/04/25 00:23:01;;;;;;;15.27;9.63;;;;;21.90;99599.00;;;;2211787;26;20263;-56
2024/04/25 00:24:02;;;;;;;14.73;9.60;;;;;22.00;99600.00;;;;2217341;26;20325;-54
2024/04/25 00:25:02;;;;;;;14.37;9.60;;;;;21.90;99593.00;;;;2213372;26;20302;-54
2024/04/25 00:26:03;;;;;;;17.13;11.03;;;;;21.90;99604.00;;;;2215285;26;20970;-55
2024/04/25 00:27:03;;;;;;;15.13;9.37;;;;;21.90;99595.00;;;;2215309;26;20853;-55
2024/04/25 00:28:04;;;;;;;16.93;9.60;;;;;21.90;99581.00;;;;2216553;26;20271;-55
2024/04/25 00:29:04;;;;;;;13.43;9.67;;;;;21.90;99598.00;;;;2215610;26;20251;-54
2024/04/25 00:30:05;;;;;;;14.77;9.40;;;;;21.90;99603.00;;;;2209018;26;20729;-56
2024/04/25 00:31:05;;;;;;;14.40;9.13;;;;;21.90;99599.00;;;;2215096;26;20714;-56
2024/04/25 00:32:06;;;;;;;15.57;9.37;;;;;21.90;99600.00;;;;2213553;26;20669;-56
2024/04/25 00:33:06;;;;;;;15.03;9.10;;;;;21.90;99592.00;;;;2216605;26;20274;-54
2024/04/25 00:34:06;;;;;;;14.90;8.97;;;;;21.90;99591.00;;;;2212694;26;20252;-53
2024/04/25 00:35:07;;;;;;;11.93;8.70;;;;;21.90;99593.00;;;;2205045;26;20334;-55
2024/04/25 00:36:07;;;;;;;17.37;9.13;;;;;21.50;99589.00;;;;2217475;26;20251;-56
2024/04/25 00:37:07;;;;;;;16.10;10.07;;;;;21.90;99603.00;;;;2207628;26;20336;-53
2024/04/25 00:38:09;;;;;;;13.50;8.70;;;;;21.90;99598.00;;;;2221382;26;20254;-55
2024/04/25 00:39:10;;;;;;;13.45;8.60;;;;;21.90;99603.00;;;;2198929;26;20272;-56
2024/04/25 00:40:10;;;;;;;13.67;8.50;;;;;21.90;99599.00;;;;2215639;26;20263;-55
2024/04/25 00:41:11;;;;;;;13.40;9.00;;;;;21.90;99598.00;;;;2217327;26;21018;-54
2024/04/25 00:42:17;;;;;;;18.57;9.47;;;;;21.90;99597.00;;;;2206817;26;20293;-55
2024/04/25 00:43:30;;;;;;;14.10;8.75;;;;;21.90;99589.00;;;;2213312;26;20322;-55
2024/04/25 00:44:30;;;;;;;11.55;7.45;;;;;21.90;99585.00;;;;2214477;26;20247;-56
2024/04/25 00:45:33;;;;;;;11.93;7.77;;;;;21.90;99584.00;;;;2218750;26;20251;-56
2024/04/25 00:46:33;;;;;;;13.65;8.60;;;;;21.90;99592.00;;;;2213814;26;20298;-55
2024/04/25 00:47:34;;;;;;;11.37;7.70;;;;;21.90;99586.00;;;;2208082;26;20941;-56
2024/04/25 00:48:34;;;;;;;11.13;6.80;;;;;21.90;99597.00;;;;2211678;26;20741;-55
2024/04/25 00:49:34;;;;;;;12.80;8.40;;;;;21.90;99586.00;;;;2201950;26;20888;-55
2024/04/25 00:50:35;;;;;;;13.77;8.23;;;;;21.90;99590.00;;;;2186358;26;20967;-56
2024/04/25 00:51:35;;;;;;;11.90;7.43;;;;;21.90;99579.00;;;;2204440;26;20342;-55
2024/04/25 00:52:35;;;;;;;12.70;8.33;;;;;21.90;99589.00;;;;2209701;26;20247;-55
2024/04/25 00:53:35;;;;;;;14.30;8.93;;;;;21.90;99592.00;;;;2227195;26;20292;-54
2024/04/25 00:54:36;;;;;;;9.70;6.47;;;;;21.90;99588.00;;;;2198992;26;20260;-55
2024/04/25 00:55:36;;;;;;;10.30;7.10;;;;;21.80;99596.00;;;;2206723;26;20261;-56
2024/04/25 00:56:38;;;;;;;16.17;8.40;;;;;21.80;99586.00;;;;2215859;26;20255;-55
2024/04/25 00:57:39;;;;;;;13.15;7.97;;;;;21.80;99591.00;;;;2186184;26;20664;-56
2024/04/25 00:58:39;;;;;;;13.60;8.07;;;;;21.80;99636.00;;;;2195920;26;20252;-56
2024/04/25 00:59:46;;;;;;;13.67;8.30;;;;;21.80;99584.00;;;;2186492;26;20960;-54
2024/04/25 01:00:47;;;;;;;11.82;7.75;;;;;21.80;99593.00;;;;2202770;26;20294;-55
2024/04/25 01:01:47;;;;;;;11.10;7.60;;;;;21.80;99592.00;;;;2193053;26;20343;-55
2024/04/25 01:02:47;;;;;;;14.63;7.43;;;;;21.80;99588.00;;;;2190039;26;20841;-54
2024/04/25 01:03:48;;;;;;;10.83;7.27;;;;;21.80;99601.00;;;;2201760;26;20256;-55
2024/04/25 01:04:48;;;;;;;11.60;7.10;;;;;21.80;99600.00;;;;2207453;26;20308;-54
2024/04/25 01:05:48;;;;;;;12.37;7.20;;;;;21.80;99589.00;;;;2215729;26;20834;-56
2024/04/25 01:06:49;;;;;;;12.97;6.90;;;;;21.80;99594.00;;;;2207098;26;20685;-56
2024/04/25 01:07:49;;;;;;;13.77;8.30;;;;;21.50;99593.00;;;;2213510;26;20251;-54
2024/04/25 01:08:49;;;;;;;10.30;6.77;;;;;21.80;99590.00;;;;2214151;26;20350;-55
2024/04/25 01:09:50;;;;;;;11.30;7.03;;;;;21.80;99592.00;;;;2214215;26;20248;-56
2024/04/25 01:10:51;;;;;;;12.00;7.43;;;;;21.80;99588.00;;;;2216873;26;20247;-56
2024/04/25 01:11:52;;;;;;;12.40;7.22;;;;;21.80;99590.00;;;;2208609;26;20311;-55
2024/04/25 01:12:52;;;;;;;10.37;7.20;;;;;21.80;99584.00;;;;2213471;26;20843;-54
2024/04/25 01:13:53;;;;;;;10.90;6.80;;;;;21.80;99584.00;;;;2215420;26;20606;-55
2024/04/25 01:14:54;;;;;;;10.75;6.65;;;;;21.80;99583.00;;;;2207854;26;20386;-56
2024/04/25 01:15:55;;;;;;;9.10;6.13;;;;;21.80;99577.00;;;;2202336;26;20840;-56
2024/04/25 01:16:55;;;;;;;9.35;6.38;;;;;21.80;99581.00;;;;2194328;26;20257;-55
2024/04/25 01:17:59;;;;;;;11.30;6.97;;;;;21.80;99578.00;;;;2218233;26;20259;-57
2024/04/25 01:18:59;;;;;;;10.23;6.28;;;;;21.80;99577.00;;;;2218000;26;20258;-54
2024/04/25 01:20:00;;;;;;;10.20;6.60;;;;;21.80;99568.00;;;;2207856;26;20351;-54
2024/04/25 01:21:00;;;;;;;8.73;5.73;;;;;21.80;99572.00;;;;2212224;26;20251;-55
2024/04/25 01:22:01;;;;;;;10.67;6.50;;;;;21.40;99570.00;;;;2207997;26;20265;-55
2024/04/25 01:23:01;;;;;;;9.23;5.90;;;;;21.80;99576.00;;;;2219726;26;20251;-54
2024/04/25 01:24:02;;;;;;;10.87;5.90;;;;;21.80;99575.00;;;;2213054;26;20822;-55
2024/04/25 01:25:04;;;;;;;8.77;6.13;;;;;21.80;99579.00;;;;2218807;26;20375;-55
2024/04/25 01:26:08;;;;;;;9.38;5.75;;;;;21.80;99575.00;;;;2206445;26;20526;-56
2024/04/25 01:27:08;;;;;;;9.27;5.80;;;;;21.80;99571.00;;;;2201574;26;20375;-55
2024/04/25 01:28:09;;;;;;;12.30;6.10;;;;;21.80;99578.00;;;;2204117;26;21363;-56
2024/04/25 01:29:13;;;;;;;6.60;5.17;;;;;21.70;99550.00;;;;2213291;26;20290;-56
2024/04/25 01:30:14;;;;;;;12.02;6.32;;;;;21.80;99581.00;;;;2205336;26;20255;-55
2024/04/25 01:31:14;;;;;;;10.03;6.27;;;;;21.70;99584.00;;;;2189990;26;20589;-55
2024/04/25 01:32:14;;;;;;;10.57;6.10;;;;;21.80;99579.00;;;;2195845;26;20636;-56
2024/04/25 01:33:15;;;;;;;7.90;5.33;;;;;21.80;99574.00;;;;2221950;26;20712;-55
2024/04/25 01:34:16;;;;;;;9.10;5.97;;;;;21.80;99570.00;;;;2208588;26;20853;-53
2024/04/25 01:35:16;;;;;;;8.97;5.80;;;;;21.70;99567.00;;;;2201335;26;20475;-55
2024/04/25 01:36:16;;;;;;;8.53;4.93;;;;;21.70;99579.00;;;;2200889;26;20578;-55
2024/04/25 01:37:17;;;;;;;8.43;5.53;;;;;21.80;99556.00;;;;2205668;26;20707;-56
2024/04/25 01:38:17;;;;;;;9.07;5.67;;;;;21.70;99556.00;;;;2217460;26;20263;-56
2024/04/25 01:39:17;;;;;;;11.10;6.07;;;;;21.70;99579.00;;;;2200894;26;20354;-56
2024/04/25 01:40:18;;;;;;;9.97;5.13;;;;;21.70;99570.00;;;;2230704;26;20294;-55
2024/04/25 01:41:18;;;;;;;9.97;5.07;;;;;21.70;99569.00;;;;2218852;26;20975;-54
2024/04/25 01:42:18;;;;;;;9.57;5.37;;;;;21.70;99581.00;;;;2206848;26;20565;-55
2024/04/25 01:43:19;;;;;;;7.93;5.37;;;;;21.70;99561.00;;;;2203232;26;20587;-55
2024/04/25 01:44:19;;;;;;;8.43;5.37;;;;;21.70;99569.00;;;;2184750;26;21036;-55
2024/04/25 01:45:19;;;;;;;9.17;5.17;;;;;21.70;99556.00;;;;2216017;26;20247;-55
2024/04/25 01:46:20;;;;;;;9.07;5.30;;;;;21.70;99556.00;;;;2216501;26;20285;-54
2024/04/25 01:47:20;;;;;;;8.30;4.83;;;;;21.70;99555.00;;;;2206699;26;20248;-56
2024/04/25 01:48:20;;;;;;;10.43;6.10;;;;;21.70;99565.00;;;;2218526;26;20290;-56
2024/04/25 01:49:21;;;;;;;7.90;5.13;;;;;21.70;99566.00;;;;2210496;26;20247;-54
2024/04/25 01:50:21;;;;;;;8.27;5.30;;;;;21.70;99562.00;;;;2206213;26;20248;-55
2024/04/25 01:51:21;;;;;;;8.77;5.60;;;;;21.70;99568.00;;;;2212045;26;20256;-55
2024/04/25 01:52:22;;;;;;;8.57;5.20;;;;;21.70;99556.00;;;;2208143;26;20361;-56
2024/04/25 01:53:23;;;;;;;9.27;4.93;;;;;21.70;99568.00;;;;2204426;26;20295;-56
2024/04/25 01:54:23;;;;;;;8.35;5.25;;;;;21.70;99568.00;;;;2219715;26;20246;-54
2024/04/25 01:55:25;;;;;;;8.03;5.23;;;;;21.70;99565.00;;;;2217648;26;20302;-55
2024/04/25 01:56:25;;;;;;;8.98;4.75;;;;;21.70;99571.00;;;;2218415;26;20247;-54
2024/04/25 01:57:25;;;;;;;7.73;4.47;;;;;21.70;99555.00;;;;2195046;26;20638;-56
2024/04/25 01:58:26;;;;;;;8.30;5.03;;;;;21.70;99571.00;;;;2215503;26;20716;-55
2024/04/25 01:59:26;;;;;;;7.40;4.80;;;;;21.70;99561.00;;;;2213253;26;20787;-56
2024/04/25 02:00:26;;;;;;;11.17;4.80;;;;;21.70;99572.00;;;;2206934;26;20709;-56
2024/04/25 02:01:27;;;;;;;8.10;4.47;;;;;21.70;99569.00;;;;2216321;26;20247;-56
2024/04/25 02:02:27;;;;;;;8.13;4.83;;;;;21.70;99572.00;;;;2211767;26;20346;-56
2024/04/25 02:03:27;;;;;;;9.93;4.77;;;;;21.70;99567.00;;;;2216798;26;20260;-54
2024/04/25 02:04:27;;;;;;;7.87;4.97;;;;;21.70;99561.00;;;;2226624;26;20359;-54
2024/04/25 02:05:28;;;;;;;6.60;3.87;;;;;21.70;99567.00;;;;2206828;26;20354;-56
2024/04/25 02:06:28;;;;;;;9.63;4.30;;;;;21.70;99556.00;;;;2216567;26;20285;-56
2024/04/25 02:07:32;;;;;;;6.07;3.73;;;;;21.70;99561.00;;;;2213576;26;20296;-56
2024/04/25 02:08:32;;;;;;;7.68;4.68;;;;;21.60;99557.00;;;;2216208;26;20263;-54
2024/04/25 02:09:33;;;;;;;7.30;4.07;;;;;21.60;99565.00;;;;2210517;26;20966;-55
2024/04/25 02:10:33;;;;;;;10.00;5.13;;;;;21.70;99557.00;;;;2209087;26;20253;-56
2024/04/25 02:11:33;;;;;;;11.63;4.70;;;;;21.20;99569.00;;;;2208905;26;20249;-55
2024/04/25 02:12:34;;;;;;;8.03;4.63;;;;;21.60;99565.00;;;;2208562;26;20267;-54
2024/04/25 02:13:35;;;;;;;9.33;5.37;;;;;21.60;99565.00;;;;2217067;26;20289;-56
2024/04/25 02:14:35;;;;;;;7.13;3.80;;;;;21.60;99567.00;;;;2207111;26;20252;-56
2024/04/25 02:15:36;;;;;;;7.90;4.50;;;;;21.60;99565.00;;;;2213614;26;20314;-56
2024/04/25 02:16:36;;;;;;;6.87;4.10;;;;;21.70;99569.00;;;;2218480;26;20259;-53
2024/04/25 02:17:39;;;;;;;6.37;4.13;;;;;21.70;99563.00;;;;2216996;26;20254;-54
2024/04/25 02:18:39;;;;;;;6.70;4.50;;;;;21.60;99556.00;;;;2218070;26;20286;-55
2024/04/25 02:19:40;;;;;;;8.63;4.43;;;;;21.60;99563.00;;;;2217010;26;20259;-56
2024/04/25 02:25:55;;;;;;;5.82;3.53;;;;;21.60;99561.00;;;;2210969;26;20613;-55
2024/04/25 02:26:56;;;;;;;6.43;3.93;;;;;21.60;99565.00;;;;2214424;26;20266;-55
2024/04/25 02:27:56;;;;;;;8.70;4.00;;;;;21.60;99556.00;;;;2216079;26;20239;-55
2024/04/25 02:28:56;;;;;;;7.37;4.70;;;;;21.60;99560.00;;;;2219703;26;20286;-56
2024/04/25 02:29:57;;;;;;;6.33;4.00;;;;;21.60;99586.00;;;;2209913;26;20247;-56
2024/04/25 02:30:57;;;;;;;7.97;4.37;;;;;21.60;99566.00;;;;2217319;26;20251;-53
2024/04/25 02:31:57;;;;;;;7.87;3.83;;;;;21.60;99562.00;;;;2206385;26;20256;-55
2024/04/25 02:32:58;;;;;;;8.47;3.60;;;;;21.60;99560.00;;;;2218367;26;20294;-55
2024/04/25 02:33:58;;;;;;;6.50;3.80;;;;;21.60;99562.00;;;;2218511;26;20251;-56
2024/04/25 02:34:58;;;;;;;7.40;4.07;;;;;21.60;99555.00;;;;2213390;26;20289;-54
2024/04/25 02:35:59;;;;;;;5.80;3.30;;;;;21.60;99557.00;;;;2217875;26;20251;-56
2024/04/25 02:36:59;;;;;;;5.63;3.90;;;;;21.60;99563.00;;;;2201429;26;20252;-54
2024/04/25 02:37:59;;;;;;;5.43;3.10;;;;;21.50;99561.00;;;;2211720;26;20302;-54
2024/04/25 02:39:00;;;;;;;5.93;3.40;;;;;21.60;99562.00;;;;2214651;26;20295;-54
2024/04/25 02:40:01;;;;;;;6.97;4.27;;;;;21.50;99556.00;;;;2212305;26;20251;-55
2024/04/25 02:41:02;;;;;;;5.25;3.10;;;;;21.50;99551.00;;;;2218159;26;20314;-59
2024/04/25 02:42:02;;;;;;;5.30;3.43;;;;;21.50;99554.00;;;;2199240;26;20334;-57
2024/04/25 02:43:02;;;;;;;5.20;3.63;;;;;21.50;99546.00;;;;2217696;26;20791;-57
2024/04/25 02:44:03;;;;;;;5.50;3.10;;;;;21.60;99556.00;;;;2221149;26;20368;-55
2024/04/25 02:45:04;;;;;;;5.20;3.07;;;;;21.50;99553.00;;;;2219465;26;20259;-54
2024/04/25 02:46:04;;;;;;;5.07;3.53;;;;;21.60;99555.00;;;;2212898;26;20255;-54
2024/04/25 02:47:04;;;;;;;6.13;3.67;;;;;21.60;99562.00;;;;2207008;26;20306;-56
2024/04/25 02:48:05;;;;;;;5.73;2.80;;;;;21.50;99556.00;;;;2225796;26;20347;-56
2024/04/25 02:49:05;;;;;;;6.17;3.70;;;;;21.50;99567.00;;;;2218067;26;20340;-56
2024/04/25 02:50:07;;;;;;;4.00;2.53;;;;;21.50;99555.00;;;;2212276;26;20251;-56
2024/04/25 02:51:07;;;;;;;5.28;3.17;;;;;21.50;99555.00;;;;2212293;26;20267;-55
2024/04/25 02:52:08;;;;;;;5.70;3.30;;;;;21.50;99552.00;;;;2207515;26;20368;-54
2024/04/25 02:53:08;;;;;;;5.60;3.10;;;;;21.50;99556.00;;;;2210846;26;20244;-54
2024/04/25 02:54:08;;;;;;;6.10;3.00;;;;;21.50;99564.00;;;;2214796;26;20945;-55
2024/04/25 02:55:09;;;;;;;4.73;2.77;;;;;21.50;99561.00;;;;2209787;26;20715;-56
2024/04/25 02:56:09;;;;;;;6.07;3.60;;;;;21.50;99557.00;;;;2214154;26;20866;-55
2024/04/25 02:57:09;;;;;;;6.47;3.47;;;;;21.60;99564.00;;;;2213581;26;20246;-55
2024/04/25 02:58:10;;;;;;;6.20;3.13;;;;;21.50;99571.00;;;;2226357;26;20609;-55
2024/04/25 02:59:10;;;;;;;4.57;2.80;;;;;21.50;99565.00;;;;2228455;26;20252;-56
2024/04/25 03:00:11;;;;;;;5.17;3.17;;;;;21.50;99563.00;;;;2214532;26;20260;-53
2024/04/25 03:01:11;;;;;;;5.77;3.40;;;;;21.50;99562.00;;;;2211291;26;20252;-55
2024/04/25 03:02:12;;;;;;;5.73;3.33;;;;;21.50;99566.00;;;;2202521;26;20534;-55
2024/04/25 03:03:12;;;;;;;5.03;2.80;;;;;21.50;99564.00;;;;2208033;26;20446;-55
2024/04/25 03:04:12;;;;;;;6.43;2.83;;;;;21.50;99561.00;;;;2219027;26;20633;-56
2024/04/25 03:05:13;;;;;;;5.60;3.17;;;;;21.50;99565.00;;;;2217941;26;20259;-54
2024/04/25 03:06:13;;;;;;;5.60;3.03;;;;;21.50;99564.00;;;;2214087;26;20255;-54
2024/04/25 03:07:13;;;;;;;6.10;3.10;;;;;21.50;99557.00;;;;2210811;26;20255;-55
2024/04/25 03:08:14;;;;;;;6.30;3.20;;;;;21.50;99563.00;;;;2209175;26;20252;-55
2024/04/25 03:09:14;;;;;;;3.50;2.37;;;;;21.50;99574.00;;;;2211140;26;20302;-55
2024/04/25 03:10:14;;;;;;;4.87;3.00;;;;;21.50;99551.00;;;;2208983;26;20251;-55
2024/04/25 03:11:15;;;;;;;4.57;2.73;;;;;21.50;99618.00;;;;2207232;26;20627;-54
2024/04/25 03:12:15;;;;;;;6.40;2.97;;;;;21.50;99548.00;;;;2201150;26;20715;-54
2024/04/25 03:13:15;;;;;;;4.70;2.40;;;;;21.50;99434.00;;;;2206837;26;20780;-55
2024/04/25 03:14:16;;;;;;;4.90;2.73;;;;;21.50;99557.00;;;;2214645;26;20878;-54
2024/04/25 03:15:16;;;;;;;5.30;2.67;;;;;21.50;99416.00;;;;2210521;26;20692;-55
2024/04/25 03:16:17;;;;;;;5.10;3.03;;;;;21.50;99561.00;;;;2217882;26;20678;-56
2024/04/25 03:17:17;;;;;;;5.10;2.73;;;;;21.50;99565.00;;;;2203769;26;20964;-54
2024/04/25 03:18:17;;;;;;;5.43;2.80;;;;;21.50;99554.00;;;;2218110;26;20255;-53
2024/04/25 03:19:18;;;;;;;5.47;2.90;;;;;21.40;99549.00;;;;2208033;26;20257;-54
2024/04/25 03:20:19;;;;;;;4.50;3.10;;;;;21.40;99557.00;;;;2216264;26;20331;-55
2024/04/25 03:21:19;;;;;;;4.70;2.73;;;;;21.50;99549.00;;;;2209982;26;20291;-55
2024/04/25 03:22:19;;;;;;;5.40;3.00;;;;;21.50;99557.00;;;;2204674;26;20306;-55
2024/04/25 03:23:19;;;;;;;4.90;2.60;;;;;21.40;99549.00;;;;2216779;26;20254;-56
2024/04/25 03:24:20;;;;;;;5.70;2.57;;;;;21.50;99547.00;;;;2215392;26;20302;-54
2024/04/25 03:25:20;;;;;;;4.50;2.50;;;;;21.50;99551.00;;;;2222988;26;20254;-55
2024/04/25 03:26:20;;;;;;;4.33;2.40;;;;;21.50;99550.00;;;;2218836;26;20260;-54
2024/04/25 03:27:21;;;;;;;4.17;2.00;;;;;21.50;99550.00;;;;2199046;26;20753;-56
2024/04/25 03:28:21;;;;;;;5.00;2.60;;;;;21.50;99548.00;;;;2210487;26;20397;-55
2024/04/25 03:29:21;;;;;;;4.73;2.83;;;;;21.40;99543.00;;;;2216027;26;20352;-55
2024/04/25 03:30:22;;;;;;;4.20;2.73;;;;;21.50;99551.00;;;;2211119;26;20303;-56
2024/04/25 03:31:22;;;;;;;4.30;2.30;;;;;21.50;99546.00;;;;2210710;26;20310;-54
2024/04/25 03:32:23;;;;;;;3.67;2.00;;;;;21.40;99532.00;;;;2206673;26;20255;-55
2024/04/25 03:33:24;;;;;;;4.63;2.40;;;;;21.40;99544.00;;;;2217379;26;20286;-54
2024/04/25 03:34:24;;;;;;;4.53;2.47;;;;;21.40;99541.00;;;;2213174;26;20298;-56
2024/04/25 03:35:24;;;;;;;4.20;2.40;;;;;21.50;99545.00;;;;2217460;26;20267;-54
2024/04/25 03:36:25;;;;;;;3.50;2.10;;;;;21.40;99545.00;;;;2214660;26;20263;-56
2024/04/25 03:37:25;;;;;;;4.37;1.97;;;;;21.40;99544.00;;;;2202483;26;21676;-54
2024/04/25 03:38:25;;;;;;;5.30;2.60;;;;;21.40;99544.00;;;;2197360;26;20358;-54
2024/04/25 03:39:26;;;;;;;4.00;2.20;;;;;21.40;99535.00;;;;2199434;26;20252;-54
2024/04/25 03:40:27;;;;;;;3.27;2.07;;;;;21.40;99543.00;;;;2219495;26;20288;-55
2024/04/25 03:41:27;;;;;;;5.33;2.27;;;;;21.40;99544.00;;;;2217828;26;20254;-54
2024/04/25 03:42:28;;;;;;;5.23;2.53;;;;;21.40;99541.00;;;;2209183;26;20712;-54
2024/04/25 03:43:28;;;;;;;4.63;2.43;;;;;21.40;99541.00;;;;2217959;26;20361;-56
2024/04/25 03:44:28;;;;;;;4.17;1.80;;;;;21.40;99540.00;;;;2219049;26;20244;-56
2024/04/25 03:45:29;;;;;;;4.03;2.10;;;;;21.40;99546.00;;;;2207729;26;20248;-56
2024/04/25 03:46:29;;;;;;;4.83;2.03;;;;;21.40;99541.00;;;;2225412;26;20238;-54
2024/04/25 03:47:29;;;;;;;3.80;2.30;;;;;21.40;99535.00;;;;2196834;26;20391;-54
2024/04/25 03:48:30;;;;;;;5.03;2.40;;;;;21.40;99553.00;;;;2214711;26;20243;-56
2024/04/25 03:49:30;;;;;;;3.63;2.00;;;;;21.40;99541.00;;;;2212416;26;20275;-56
2024/04/25 03:50:30;;;;;;;6.50;2.90;;;;;21.40;99554.00;;;;2216036;26;20262;-56
2024/04/25 03:51:31;;;;;;;6.00;2.43;;;;;21.40;99549.00;;;;2207434;26;20305;-56
2024/04/25 03:52:31;;;;;;;4.00;1.90;;;;;21.40;99546.00;;;;2213320;26;20261;-55
2024/04/25 03:53:31;;;;;;;5.57;2.33;;;;;21.40;99549.00;;;;2216654;26;20365;-54
2024/04/25 03:54:32;;;;;;;3.30;1.97;;;;;21.40;99539.00;;;;2219075;26;20255;-54
2024/04/25 03:55:32;;;;;;;5.20;2.40;;;;;21.40;99544.00;;;;2216773;26;20287;-56
2024/04/25 03:56:32;;;;;;;3.63;2.13;;;;;21.40;99538.00;;;;2229893;26;20246;-54
2024/04/25 03:57:32;;;;;;;5.07;2.13;;;;;21.40;99548.00;;;;2197555;26;20324;-55
2024/04/25 03:58:33;;;;;;;4.90;2.40;;;;;21.40;99540.00;;;;2205914;26;20252;-55
2024/04/25 03:59:33;;;;;;;5.47;2.10;;;;;21.40;99552.00;;;;2216530;26;20251;-55
2024/04/25 04:00:33;;;;;;;3.57;2.10;;;;;21.40;99560.00;;;;2210841;26;20634;-56
2024/04/25 04:01:34;;;;;;;4.27;2.27;;;;;21.40;99561.00;;;;2217098;26;20638;-53
2024/04/25 04:02:35;;;;;;;4.50;2.17;;;;;21.40;99547.00;;;;2206288;26;20255;-55
2024/04/25 04:03:35;;;;;;;3.37;1.90;;;;;21.40;99553.00;;;;2205142;26;20244;-56
2024/04/25 04:04:35;;;;;;;5.17;2.30;;;;;21.40;99548.00;;;;2214605;26;20247;-55
2024/04/25 04:05:36;;;;;;;5.27;2.40;;;;;21.40;99546.00;;;;2220211;26;20247;-55
2024/04/25 04:06:36;;;;;;;3.93;2.00;;;;;21.40;99573.00;;;;2215126;26;20278;-54
2024/04/25 04:07:36;;;;;;;3.57;1.87;;;;;21.30;99551.00;;;;2200642;26;20307;-55
2024/04/25 04:08:37;;;;;;;4.30;2.30;;;;;21.40;99553.00;;;;2203061;26;20244;-56
2024/04/25 04:09:37;;;;;;;3.43;2.07;;;;;21.40;99553.00;;;;2203848;26;20239;-55
2024/04/25 04:10:37;;;;;;;4.27;2.10;;;;;21.40;99548.00;;;;2223136;26;20269;-55
2024/04/25 04:11:39;;;;;;;3.87;2.20;;;;;21.40;99554.00;;;;2216879;26;20245;-54
2024/04/25 04:12:40;;;;;;;3.92;1.95;;;;;21.40;99556.00;;;;2196906;26;21082;-58
2024/04/25 04:13:40;;;;;;;4.40;1.70;;;;;21.40;99552.00;;;;2212669;26;20249;-54
2024/04/25 04:14:43;;;;;;;4.70;2.37;;;;;21.40;99584.00;;;;2205967;26;20248;-57
2024/04/25 04:15:43;;;;;;;4.88;2.35;;;;;21.40;99548.00;;;;2217191;26;20275;-55
2024/04/25 04:16:44;;;;;;;4.90;1.60;;;;;21.30;99556.00;;;;2213322;26;20273;-54
2024/04/25 04:17:44;;;;;;;3.90;1.77;;;;;21.40;99551.00;;;;2216425;26;20250;-56
2024/04/25 04:18:45;;;;;;;3.80;2.00;;;;;21.40;99571.00;;;;2209579;26;20251;-55
2024/04/25 04:19:45;;;;;;;3.60;1.87;;;;;21.30;99551.00;;;;2216888;26;21116;-55
2024/04/25 04:20:48;;;;;;;2.90;1.70;;;;;21.40;99556.00;;;;2216529;26;20818;-56
2024/04/25 04:21:49;;;;;;;3.88;1.77;;;;;21.30;99553.00;;;;2208052;26;20255;-55
2024/04/25 04:22:49;;;;;;;5.30;2.10;;;;;21.30;99550.00;;;;2217934;26;20250;-54
2024/04/25 04:23:49;;;;;;;5.00;1.90;;;;;21.30;99552.00;;;;2221952;26;20354;-55
2024/04/25 04:24:50;;;;;;;3.20;1.70;;;;;21.30;99549.00;;;;2209649;26;20248;-55
2024/04/25 04:25:50;;;;;;;3.87;1.97;;;;;21.30;99564.00;;;;2230365;26;20726;-55
2024/04/25 04:26:50;;;;;;;3.37;1.63;;;;;21.30;99551.00;;;;2208072;26;21006;-56
2024/04/25 04:27:51;;;;;;;3.40;2.30;;;;;21.30;99546.00;;;;2216450;26;20333;-56
2024/04/25 04:28:51;;;;;;;4.30;2.00;;;;;21.30;99547.00;;;;2211852;26;20268;-56
2024/04/25 04:29:51;;;;;;;6.03;2.23;;;;;21.30;99553.00;;;;2217157;26;20365;-54
2024/04/25 04:30:52;;;;;;;4.37;1.80;;;;;21.30;99556.00;;;;2204867;26;20291;-55
2024/04/25 04:31:52;;;;;;;3.60;1.80;;;;;21.30;99557.00;;;;2209157;26;20315;-56
2024/04/25 04:32:52;;;;;;;3.27;1.87;;;;;21.30;99552.00;;;;2217458;26;20646;-56
2024/04/25 04:33:53;;;;;;;3.13;1.40;;;;;21.30;99552.00;;;;2216158;26;20259;-55
2024/04/25 04:34:53;;;;;;;3.33;1.70;;;;;21.30;99556.00;;;;2216813;26;20326;-56
2024/04/25 04:35:55;;;;;;;4.40;2.50;;;;;21.30;99557.00;;;;2216009;26;20676;-54
2024/04/25 04:36:55;;;;;;;4.85;1.50;;;;;21.30;99551.00;;;;2208888;26;20251;-56
2024/04/25 04:37:55;;;;;;;5.00;1.90;;;;;21.30;99557.00;;;;2219127;26;20256;-54
2024/04/25 04:38:56;;;;;;;4.10;1.93;;;;;21.30;99552.00;;;;2214677;26;20381;-54
2024/04/25 04:39:56;;;;;;;3.07;1.60;;;;;21.30;99561.00;;;;2213887;26;20289;-54
2024/04/25 04:40:56;;;;;;;4.13;1.90;;;;;21.30;99563.00;;;;2209708;26;20251;-56
2024/04/25 04:41:57;;;;;;;2.73;1.60;;;;;21.30;99554.00;;;;2217382;26;20387;-53
2024/04/25 04:42:57;;;;;;;3.80;1.93;;;;;21.30;99556.00;;;;2216204;26;20321;-55
2024/04/25 04:43:57;;;;;;;2.73;1.10;;;;;21.30;99553.00;;;;2216696;26;20267;-56
2024/04/25 04:44:58;;;;;;;3.87;1.80;;;;;21.30;99556.00;;;;2220703;26;20511;-55
2024/04/25 04:46:00;;;;;;;3.43;1.30;;;;;21.30;99555.00;;;;2211483;26;20950;-53
2024/04/25 04:47:01;;;;;;;3.15;1.55;;;;;21.30;99549.00;;;;2218732;26;20263;-55
2024/04/25 04:48:01;;;;;;;3.67;1.70;;;;;21.30;99552.00;;;;2217690;26;20666;-56
2024/04/25 04:49:02;;;;;;;4.23;1.67;;;;;21.30;99560.00;;;;2219014;26;20635;-56
2024/04/25 04:50:02;;;;;;;2.90;1.37;;;;;21.30;99555.00;;;;2223488;26;20263;-56
2024/04/25 04:51:02;;;;;;;4.17;1.80;;;;;21.30;99566.00;;;;2209008;26;20338;-53
2024/04/25 04:52:03;;;;;;;3.50;1.77;;;;;21.30;99560.00;;;;2199506;26;20378;-54
2024/04/25 04:53:03;;;;;;;3.63;1.60;;;;;21.30;99549.00;;;;2217892;26;20256;-56
2024/04/25 04:54:04;;;;;;;3.83;1.43;;;;;21.30;99541.00;;;;2220478;26;20275;-55
2024/04/25 04:55:04;;;;;;;3.50;1.90;;;;;21.30;99550.00;;;;2224147;26;20266;-56
2024/04/25 04:56:05;;;;;;;3.53;1.40;;;;;21.30;99546.00;;;;2218511;26;20340;-56
2024/04/25 04:57:06;;;;;;;3.13;1.50;;;;;21.30;99542.00;;;;2209575;26;20297;-54
2024/04/25 04:58:08;;;;;;;3.23;1.40;;;;;21.30;99549.00;;;;2217824;26;20243;-54
2024/04/25 04:59:08;;;;;;;2.83;1.42;;;;;21.20;99554.00;;;;2218414;26;20250;-55
2024/04/25 05:00:09;;;;;;;3.47;1.53;;;;;21.30;99550.00;;;;2209235;26;20247;-55
2024/04/25 05:01:09;;;;;;;4.20;1.30;;;;;21.30;99548.00;;;;2207284;26;20299;-54
2024/04/25 05:02:10;;;;;;;3.90;1.80;;;;;21.30;99547.00;;;;2199199;26;22845;-56
2024/04/25 05:03:11;;;;;;;4.37;1.70;;;;;21.30;99553.00;;;;2218489;26;21128;-55
2024/04/25 05:04:12;;;;;;;3.28;1.50;;;;;21.30;99552.00;;;;2218911;26;20298;-54
2024/04/25 05:05:12;;;;;;;3.40;1.50;;;;;21.30;99546.00;;;;2207644;26;20249;-55
2024/04/25 05:06:12;;;;;;;2.93;1.40;;;;;21.30;99551.00;;;;2216141;26;20801;-56
2024/04/25 05:07:13;;;;;;;3.40;1.57;;;;;21.30;99553.00;;;;2203151;26;20372;-54